sensor_id;sensor_type;location;lat;lon;timestamp;P1;durP1;ratioP1;P2;durP2;ratioP2
25083;SDS011;13075;55.682;37.564;2022-12-22T00:02:25;2.30;;;1.60;;
25083;SDS011;13075;55.682;37.564;2022-12-22T00:05:20;1.92;;;1.70;;
25083;SDS011;13075;55.682;37.564;2022-12-22T00:08:05;3.63;;;1.55;;
25083;SDS011;13075;55.682;37.564;2022-12-22T00:10:50;3.03;;;1.52;;
25083;SDS011;13075;55.682;37.564;2022-12-22T00:13:35;2.22;;;2.03;;
25083;SDS011;13075;55.682;37.564;2022-12-22T00:16:20;3.00;;;1.90;;
25083;SDS011;13075;55.682;37.564;2022-12-22T00:19:12;2.03;;;1.70;;
25083;SDS011;13075;55.682;37.564;2022-12-22T00:22:18;1.70;;;1.42;;
25083;SDS011;13075;55.682;37.564;2022-12-22T00:25:03;3.22;;;1.60;;
25083;SDS011;13075;55.682;37.564;2022-12-22T00:27:48;1.55;;;1.45;;
25083;SDS011;13075;55.682;37.564;2022-12-22T00:30:32;2.08;;;1.70;;
25083;SDS011;13075;55.682;37.564;2022-12-22T00:33:17;3.28;;;1.67;;
25083;SDS011;13075;55.682;37.564;2022-12-22T00:36:03;1.90;;;1.73;;
25083;SDS011;13075;55.682;37.564;2022-12-22T00:38:49;2.10;;;1.75;;
25083;SDS011;13075;55.682;37.564;2022-12-22T00:44:17;1.80;;;1.50;;
25083;SDS011;13075;55.682;37.564;2022-12-22T00:47:01;1.50;;;1.38;;
25083;SDS011;13075;55.682;37.564;2022-12-22T00:49:46;1.77;;;1.40;;
25083;SDS011;13075;55.682;37.564;2022-12-22T00:52:31;2.35;;;1.70;;
25083;SDS011;13075;55.682;37.564;2022-12-22T00:55:17;1.65;;;1.55;;
25083;SDS011;13075;55.682;37.564;2022-12-22T00:58:05;2.15;;;1.63;;
25083;SDS011;13075;55.682;37.564;2022-12-22T01:00:57;2.25;;;1.70;;
25083;SDS011;13075;55.682;37.564;2022-12-22T01:03:41;1.85;;;1.30;;
25083;SDS011;13075;55.682;37.564;2022-12-22T01:06:25;1.48;;;1.38;;
25083;SDS011;13075;55.682;37.564;2022-12-22T01:09:13;4.03;;;1.45;;
25083;SDS011;13075;55.682;37.564;2022-12-22T01:11:57;1.50;;;1.40;;
25083;SDS011;13075;55.682;37.564;2022-12-22T01:17:25;2.75;;;1.77;;
25083;SDS011;13075;55.682;37.564;2022-12-22T01:20:10;1.83;;;1.50;;
25083;SDS011;13075;55.682;37.564;2022-12-22T01:22:54;1.63;;;1.50;;
25083;SDS011;13075;55.682;37.564;2022-12-22T01:25:38;1.27;;;1.17;;
25083;SDS011;13075;55.682;37.564;2022-12-22T01:28:23;2.10;;;1.42;;
25083;SDS011;13075;55.682;37.564;2022-12-22T01:31:17;2.85;;;1.67;;
25083;SDS011;13075;55.682;37.564;2022-12-22T01:34:06;3.42;;;1.45;;
25083;SDS011;13075;55.682;37.564;2022-12-22T01:36:51;1.95;;;1.38;;
25083;SDS011;13075;55.682;37.564;2022-12-22T01:39:35;2.92;;;1.88;;
25083;SDS011;13075;55.682;37.564;2022-12-22T01:42:20;2.85;;;1.83;;
25083;SDS011;13075;55.682;37.564;2022-12-22T01:45:12;2.72;;;1.98;;
25083;SDS011;13075;55.682;37.564;2022-12-22T01:48:03;4.93;;;1.60;;
25083;SDS011;13075;55.682;37.564;2022-12-22T01:50:47;1.98;;;1.73;;
25083;SDS011;13075;55.682;37.564;2022-12-22T01:56:16;2.63;;;1.52;;
25083;SDS011;13075;55.682;37.564;2022-12-22T01:59:01;1.55;;;1.45;;
25083;SDS011;13075;55.682;37.564;2022-12-22T02:01:47;2.38;;;1.75;;
25083;SDS011;13075;55.682;37.564;2022-12-22T02:04:35;1.85;;;1.40;;
25083;SDS011;13075;55.682;37.564;2022-12-22T02:13:24;2.70;;;2.10;;
25083;SDS011;13075;55.682;37.564;2022-12-22T02:16:34;1.95;;;1.42;;
25083;SDS011;13075;55.682;37.564;2022-12-22T02:25:27;2.55;;;1.88;;
25083;SDS011;13075;55.682;37.564;2022-12-22T02:28:19;4.45;;;2.58;;
25083;SDS011;13075;55.682;37.564;2022-12-22T02:31:04;2.90;;;1.83;;
25083;SDS011;13075;55.682;37.564;2022-12-22T02:33:49;2.70;;;2.05;;
25083;SDS011;13075;55.682;37.564;2022-12-22T02:42:38;3.08;;;2.70;;
25083;SDS011;13075;55.682;37.564;2022-12-22T02:48:40;2.97;;;2.50;;
25083;SDS011;13075;55.682;37.564;2022-12-22T02:51:32;3.20;;;2.47;;
25083;SDS011;13075;55.682;37.564;2022-12-22T02:54:20;4.80;;;3.08;;
25083;SDS011;13075;55.682;37.564;2022-12-22T02:57:05;7.47;;;2.97;;
25083;SDS011;13075;55.682;37.564;2022-12-22T02:59:50;4.43;;;3.20;;
25083;SDS011;13075;55.682;37.564;2022-12-22T03:05:17;5.87;;;3.23;;
25083;SDS011;13075;55.682;37.564;2022-12-22T03:08:02;3.05;;;2.42;;
25083;SDS011;13075;55.682;37.564;2022-12-22T03:13:29;6.45;;;3.15;;
25083;SDS011;13075;55.682;37.564;2022-12-22T03:16:14;5.75;;;3.47;;
25083;SDS011;13075;55.682;37.564;2022-12-22T03:18:57;4.60;;;3.55;;
25083;SDS011;13075;55.682;37.564;2022-12-22T03:21:42;5.95;;;3.80;;
25083;SDS011;13075;55.682;37.564;2022-12-22T03:24:26;6.45;;;3.45;;
25083;SDS011;13075;55.682;37.564;2022-12-22T03:27:10;5.53;;;3.30;;
25083;SDS011;13075;55.682;37.564;2022-12-22T03:29:36;6.35;;;4.30;;
25083;SDS011;13075;55.682;37.564;2022-12-22T03:32:02;5.88;;;3.53;;
25083;SDS011;13075;55.682;37.564;2022-12-22T03:34:27;4.85;;;4.00;;
25083;SDS011;13075;55.682;37.564;2022-12-22T03:36:53;4.53;;;3.15;;
25083;SDS011;13075;55.682;37.564;2022-12-22T03:39:19;4.57;;;3.25;;
25083;SDS011;13075;55.682;37.564;2022-12-22T03:41:44;6.28;;;4.15;;
25083;SDS011;13075;55.682;37.564;2022-12-22T03:44:28;6.32;;;4.53;;
25083;SDS011;13075;55.682;37.564;2022-12-22T03:49:37;5.30;;;3.60;;
25083;SDS011;13075;55.682;37.564;2022-12-22T03:52:03;4.85;;;4.10;;
25083;SDS011;13075;55.682;37.564;2022-12-22T03:54:28;5.68;;;4.10;;
25083;SDS011;13075;55.682;37.564;2022-12-22T03:56:54;5.65;;;4.82;;
25083;SDS011;13075;55.682;37.564;2022-12-22T03:59:20;6.90;;;4.65;;
25083;SDS011;13075;55.682;37.564;2022-12-22T04:01:47;6.82;;;4.43;;
25083;SDS011;13075;55.682;37.564;2022-12-22T04:04:15;5.03;;;3.83;;
25083;SDS011;13075;55.682;37.564;2022-12-22T04:06:42;5.55;;;4.45;;
25083;SDS011;13075;55.682;37.564;2022-12-22T04:09:08;5.80;;;4.13;;
25083;SDS011;13075;55.682;37.564;2022-12-22T04:11:34;6.80;;;4.60;;
25083;SDS011;13075;55.682;37.564;2022-12-22T04:14:19;7.82;;;4.28;;
25083;SDS011;13075;55.682;37.564;2022-12-22T04:16:45;8.85;;;4.22;;
25083;SDS011;13075;55.682;37.564;2022-12-22T04:19:10;7.85;;;4.45;;
25083;SDS011;13075;55.682;37.564;2022-12-22T04:21:36;7.90;;;5.07;;
25083;SDS011;13075;55.682;37.564;2022-12-22T04:24:02;8.55;;;4.75;;
25083;SDS011;13075;55.682;37.564;2022-12-22T04:26:28;7.07;;;4.75;;
25083;SDS011;13075;55.682;37.564;2022-12-22T04:28:54;8.35;;;5.10;;
25083;SDS011;13075;55.682;37.564;2022-12-22T04:31:20;9.68;;;5.05;;
25083;SDS011;13075;55.682;37.564;2022-12-22T04:33:47;10.98;;;5.85;;
25083;SDS011;13075;55.682;37.564;2022-12-22T04:36:13;7.85;;;5.63;;
25083;SDS011;13075;55.682;37.564;2022-12-22T04:38:39;6.07;;;5.07;;
25083;SDS011;13075;55.682;37.564;2022-12-22T04:41:05;6.78;;;5.95;;
25083;SDS011;13075;55.682;37.564;2022-12-22T04:43:31;7.93;;;5.43;;
25083;SDS011;13075;55.682;37.564;2022-12-22T04:45:58;9.73;;;5.68;;
25083;SDS011;13075;55.682;37.564;2022-12-22T04:48:24;11.75;;;6.40;;
25083;SDS011;13075;55.682;37.564;2022-12-22T04:50:51;12.05;;;6.05;;
25083;SDS011;13075;55.682;37.564;2022-12-22T04:53:18;9.02;;;6.25;;
25083;SDS011;13075;55.682;37.564;2022-12-22T04:55:47;8.57;;;6.13;;
25083;SDS011;13075;55.682;37.564;2022-12-22T04:58:15;11.60;;;7.13;;
25083;SDS011;13075;55.682;37.564;2022-12-22T05:00:41;7.72;;;5.35;;
25083;SDS011;13075;55.682;37.564;2022-12-22T05:03:07;9.68;;;6.22;;
25083;SDS011;13075;55.682;37.564;2022-12-22T05:05:33;11.02;;;6.18;;
25083;SDS011;13075;55.682;37.564;2022-12-22T05:07:59;9.70;;;6.22;;
25083;SDS011;13075;55.682;37.564;2022-12-22T05:10:25;8.32;;;6.00;;
25083;SDS011;13075;55.682;37.564;2022-12-22T05:12:51;10.23;;;6.78;;
25083;SDS011;13075;55.682;37.564;2022-12-22T05:15:23;10.32;;;7.40;;
25083;SDS011;13075;55.682;37.564;2022-12-22T05:17:53;13.50;;;6.90;;
25083;SDS011;13075;55.682;37.564;2022-12-22T05:20:20;11.73;;;6.95;;
25083;SDS011;13075;55.682;37.564;2022-12-22T05:22:45;12.95;;;9.90;;
25083;SDS011;13075;55.682;37.564;2022-12-22T05:25:11;10.45;;;7.78;;
25083;SDS011;13075;55.682;37.564;2022-12-22T05:27:40;10.35;;;6.97;;
25083;SDS011;13075;55.682;37.564;2022-12-22T05:30:07;8.70;;;6.78;;
25083;SDS011;13075;55.682;37.564;2022-12-22T05:32:33;14.45;;;8.25;;
25083;SDS011;13075;55.682;37.564;2022-12-22T05:34:59;14.02;;;8.40;;
25083;SDS011;13075;55.682;37.564;2022-12-22T05:37:26;11.45;;;7.57;;
25083;SDS011;13075;55.682;37.564;2022-12-22T05:39:51;14.57;;;8.75;;
25083;SDS011;13075;55.682;37.564;2022-12-22T05:42:17;11.52;;;7.40;;
25083;SDS011;13075;55.682;37.564;2022-12-22T05:45:07;13.93;;;7.90;;
25083;SDS011;13075;55.682;37.564;2022-12-22T05:47:39;14.25;;;8.90;;
25083;SDS011;13075;55.682;37.564;2022-12-22T05:50:06;13.30;;;8.75;;
25083;SDS011;13075;55.682;37.564;2022-12-22T05:52:33;18.25;;;9.30;;
25083;SDS011;13075;55.682;37.564;2022-12-22T05:54:59;21.85;;;9.85;;
25083;SDS011;13075;55.682;37.564;2022-12-22T05:57:24;16.80;;;10.02;;
25083;SDS011;13075;55.682;37.564;2022-12-22T05:59:50;13.98;;;9.35;;
25083;SDS011;13075;55.682;37.564;2022-12-22T06:02:16;12.25;;;9.02;;
25083;SDS011;13075;55.682;37.564;2022-12-22T06:04:41;19.40;;;10.27;;
25083;SDS011;13075;55.682;37.564;2022-12-22T06:07:07;15.05;;;9.88;;
25083;SDS011;13075;55.682;37.564;2022-12-22T06:09:32;27.08;;;10.82;;
25083;SDS011;13075;55.682;37.564;2022-12-22T06:11:58;14.10;;;9.40;;
25083;SDS011;13075;55.682;37.564;2022-12-22T06:14:23;15.88;;;9.30;;
25083;SDS011;13075;55.682;37.564;2022-12-22T06:16:49;13.50;;;8.85;;
25083;SDS011;13075;55.682;37.564;2022-12-22T06:19:15;16.70;;;10.70;;
25083;SDS011;13075;55.682;37.564;2022-12-22T06:21:40;16.92;;;9.18;;
25083;SDS011;13075;55.682;37.564;2022-12-22T06:24:06;16.88;;;10.63;;
25083;SDS011;13075;55.682;37.564;2022-12-22T06:26:32;16.77;;;10.05;;
25083;SDS011;13075;55.682;37.564;2022-12-22T06:28:57;14.93;;;10.07;;
25083;SDS011;13075;55.682;37.564;2022-12-22T06:31:23;13.45;;;9.30;;
25083;SDS011;13075;55.682;37.564;2022-12-22T06:33:49;14.10;;;9.68;;
25083;SDS011;13075;55.682;37.564;2022-12-22T06:36:14;15.38;;;9.38;;
25083;SDS011;13075;55.682;37.564;2022-12-22T06:38:40;14.40;;;9.40;;
25083;SDS011;13075;55.682;37.564;2022-12-22T06:41:05;19.27;;;9.70;;
25083;SDS011;13075;55.682;37.564;2022-12-22T06:43:31;17.90;;;9.32;;
25083;SDS011;13075;55.682;37.564;2022-12-22T06:45:57;15.25;;;8.48;;
25083;SDS011;13075;55.682;37.564;2022-12-22T06:48:22;13.93;;;9.05;;
25083;SDS011;13075;55.682;37.564;2022-12-22T06:50:48;14.52;;;9.70;;
25083;SDS011;13075;55.682;37.564;2022-12-22T06:53:14;16.50;;;10.68;;
25083;SDS011;13075;55.682;37.564;2022-12-22T06:55:40;12.85;;;9.13;;
25083;SDS011;13075;55.682;37.564;2022-12-22T06:58:06;17.25;;;10.77;;
25083;SDS011;13075;55.682;37.564;2022-12-22T07:00:32;16.13;;;10.23;;
25083;SDS011;13075;55.682;37.564;2022-12-22T07:02:58;17.95;;;9.45;;
25083;SDS011;13075;55.682;37.564;2022-12-22T07:05:24;13.23;;;10.32;;
25083;SDS011;13075;55.682;37.564;2022-12-22T07:07:50;15.65;;;9.63;;
25083;SDS011;13075;55.682;37.564;2022-12-22T07:10:16;16.30;;;10.48;;
25083;SDS011;13075;55.682;37.564;2022-12-22T07:12:42;14.77;;;10.35;;
25083;SDS011;13075;55.682;37.564;2022-12-22T07:15:08;14.15;;;9.30;;
25083;SDS011;13075;55.682;37.564;2022-12-22T07:17:34;17.65;;;11.88;;
25083;SDS011;13075;55.682;37.564;2022-12-22T07:19:59;17.30;;;10.50;;
25083;SDS011;13075;55.682;37.564;2022-12-22T07:22:25;16.73;;;10.55;;
25083;SDS011;13075;55.682;37.564;2022-12-22T07:24:51;13.75;;;9.75;;
25083;SDS011;13075;55.682;37.564;2022-12-22T07:27:16;15.90;;;9.23;;
25083;SDS011;13075;55.682;37.564;2022-12-22T07:29:42;15.95;;;10.43;;
25083;SDS011;13075;55.682;37.564;2022-12-22T07:32:08;15.50;;;9.95;;
25083;SDS011;13075;55.682;37.564;2022-12-22T07:34:33;17.92;;;9.82;;
25083;SDS011;13075;55.682;37.564;2022-12-22T07:36:59;14.00;;;8.40;;
25083;SDS011;13075;55.682;37.564;2022-12-22T07:39:24;14.00;;;8.35;;
25083;SDS011;13075;55.682;37.564;2022-12-22T07:41:50;14.48;;;9.07;;
25083;SDS011;13075;55.682;37.564;2022-12-22T07:44:35;19.50;;;9.65;;
25083;SDS011;13075;55.682;37.564;2022-12-22T07:47:00;17.88;;;10.65;;
25083;SDS011;13075;55.682;37.564;2022-12-22T07:49:26;15.98;;;9.18;;
25083;SDS011;13075;55.682;37.564;2022-12-22T07:54:35;14.13;;;9.35;;
25083;SDS011;13075;55.682;37.564;2022-12-22T07:57:01;17.33;;;9.82;;
25083;SDS011;13075;55.682;37.564;2022-12-22T07:59:27;14.20;;;9.40;;
25083;SDS011;13075;55.682;37.564;2022-12-22T08:01:52;14.77;;;10.35;;
25083;SDS011;13075;55.682;37.564;2022-12-22T08:04:18;17.58;;;10.43;;
25083;SDS011;13075;55.682;37.564;2022-12-22T08:06:44;14.55;;;9.95;;
25083;SDS011;13075;55.682;37.564;2022-12-22T08:09:12;15.00;;;9.80;;
25083;SDS011;13075;55.682;37.564;2022-12-22T08:11:38;15.25;;;10.10;;
25083;SDS011;13075;55.682;37.564;2022-12-22T08:14:04;15.40;;;9.65;;
25083;SDS011;13075;55.682;37.564;2022-12-22T08:16:30;15.85;;;9.90;;
25083;SDS011;13075;55.682;37.564;2022-12-22T08:18:55;22.13;;;11.02;;
25083;SDS011;13075;55.682;37.564;2022-12-22T08:21:21;14.98;;;10.38;;
25083;SDS011;13075;55.682;37.564;2022-12-22T08:23:47;15.45;;;10.85;;
25083;SDS011;13075;55.682;37.564;2022-12-22T08:28:53;16.35;;;10.15;;
25083;SDS011;13075;55.682;37.564;2022-12-22T08:31:23;19.48;;;10.80;;
25083;SDS011;13075;55.682;37.564;2022-12-22T08:33:51;13.07;;;8.88;;
25083;SDS011;13075;55.682;37.564;2022-12-22T08:36:18;26.50;;;11.15;;
25083;SDS011;13075;55.682;37.564;2022-12-22T08:38:44;17.13;;;11.07;;
25083;SDS011;13075;55.682;37.564;2022-12-22T08:41:11;19.13;;;10.40;;
25083;SDS011;13075;55.682;37.564;2022-12-22T08:43:39;18.05;;;11.02;;
25083;SDS011;13075;55.682;37.564;2022-12-22T08:46:05;19.40;;;11.02;;
25083;SDS011;13075;55.682;37.564;2022-12-22T08:48:30;18.77;;;12.15;;
25083;SDS011;13075;55.682;37.564;2022-12-22T08:50:56;19.98;;;11.40;;
25083;SDS011;13075;55.682;37.564;2022-12-22T08:53:22;16.13;;;11.55;;
25083;SDS011;13075;55.682;37.564;2022-12-22T08:55:51;20.80;;;12.02;;
25083;SDS011;13075;55.682;37.564;2022-12-22T08:58:17;16.98;;;10.75;;
25083;SDS011;13075;55.682;37.564;2022-12-22T09:00:43;20.50;;;12.05;;
25083;SDS011;13075;55.682;37.564;2022-12-22T09:03:09;17.65;;;9.93;;
25083;SDS011;13075;55.682;37.564;2022-12-22T09:05:34;18.75;;;12.52;;
25083;SDS011;13075;55.682;37.564;2022-12-22T09:08:03;17.63;;;11.07;;
25083;SDS011;13075;55.682;37.564;2022-12-22T09:10:31;14.93;;;11.43;;
25083;SDS011;13075;55.682;37.564;2022-12-22T09:12:57;20.83;;;14.23;;
25083;SDS011;13075;55.682;37.564;2022-12-22T09:15:22;21.60;;;13.27;;
25083;SDS011;13075;55.682;37.564;2022-12-22T09:17:48;19.55;;;12.38;;
25083;SDS011;13075;55.682;37.564;2022-12-22T09:20:14;20.92;;;12.45;;
25083;SDS011;13075;55.682;37.564;2022-12-22T09:22:40;26.77;;;13.13;;
25083;SDS011;13075;55.682;37.564;2022-12-22T09:25:05;19.25;;;11.77;;
25083;SDS011;13075;55.682;37.564;2022-12-22T09:27:31;22.95;;;12.98;;
25083;SDS011;13075;55.682;37.564;2022-12-22T09:29:57;19.23;;;13.30;;
25083;SDS011;13075;55.682;37.564;2022-12-22T09:32:22;18.52;;;11.77;;
25083;SDS011;13075;55.682;37.564;2022-12-22T09:34:48;21.70;;;13.13;;
25083;SDS011;13075;55.682;37.564;2022-12-22T09:37:14;18.10;;;12.05;;
25083;SDS011;13075;55.682;37.564;2022-12-22T09:39:40;24.85;;;13.07;;
25083;SDS011;13075;55.682;37.564;2022-12-22T09:42:10;21.02;;;13.32;;
25083;SDS011;13075;55.682;37.564;2022-12-22T09:44:40;19.98;;;12.23;;
25083;SDS011;13075;55.682;37.564;2022-12-22T09:47:14;22.48;;;12.88;;
25083;SDS011;13075;55.682;37.564;2022-12-22T09:49:45;22.20;;;12.18;;
25083;SDS011;13075;55.682;37.564;2022-12-22T09:54:59;22.00;;;11.73;;
25083;SDS011;13075;55.682;37.564;2022-12-22T09:57:28;24.38;;;13.73;;
25083;SDS011;13075;55.682;37.564;2022-12-22T09:59:56;22.67;;;12.88;;
25083;SDS011;13075;55.682;37.564;2022-12-22T10:05:23;23.75;;;13.32;;
25083;SDS011;13075;55.682;37.564;2022-12-22T10:08:09;28.13;;;12.88;;
25083;SDS011;13075;55.682;37.564;2022-12-22T10:10:38;19.98;;;12.02;;
25083;SDS011;13075;55.682;37.564;2022-12-22T10:13:04;23.45;;;12.60;;
25083;SDS011;13075;55.682;37.564;2022-12-22T10:15:38;23.15;;;12.50;;
25083;SDS011;13075;55.682;37.564;2022-12-22T10:18:16;23.75;;;12.93;;
25083;SDS011;13075;55.682;37.564;2022-12-22T10:20:44;21.90;;;11.77;;
25083;SDS011;13075;55.682;37.564;2022-12-22T10:23:19;20.58;;;12.20;;
25083;SDS011;13075;55.682;37.564;2022-12-22T10:28:21;28.38;;;13.95;;
25083;SDS011;13075;55.682;37.564;2022-12-22T10:30:51;24.80;;;12.50;;
25083;SDS011;13075;55.682;37.564;2022-12-22T10:33:49;24.50;;;14.00;;
25083;SDS011;13075;55.682;37.564;2022-12-22T10:36:21;26.88;;;13.32;;
25083;SDS011;13075;55.682;37.564;2022-12-22T10:41:24;18.42;;;11.48;;
25083;SDS011;13075;55.682;37.564;2022-12-22T10:43:54;20.98;;;12.77;;
25083;SDS011;13075;55.682;37.564;2022-12-22T10:46:29;20.05;;;11.82;;
25083;SDS011;13075;55.682;37.564;2022-12-22T10:49:08;26.27;;;14.40;;
25083;SDS011;13075;55.682;37.564;2022-12-22T10:51:36;19.55;;;12.32;;
25083;SDS011;13075;55.682;37.564;2022-12-22T10:54:03;21.23;;;13.43;;
25083;SDS011;13075;55.682;37.564;2022-12-22T10:56:30;23.58;;;13.02;;
25083;SDS011;13075;55.682;37.564;2022-12-22T11:01:29;22.98;;;13.32;;
25083;SDS011;13075;55.682;37.564;2022-12-22T11:03:57;27.48;;;16.13;;
25083;SDS011;13075;55.682;37.564;2022-12-22T11:06:39;26.23;;;13.52;;
25083;SDS011;13075;55.682;37.564;2022-12-22T11:09:07;26.35;;;12.73;;
25083;SDS011;13075;55.682;37.564;2022-12-22T11:11:39;24.50;;;13.70;;
25083;SDS011;13075;55.682;37.564;2022-12-22T11:14:10;21.73;;;13.18;;
25083;SDS011;13075;55.682;37.564;2022-12-22T11:16:48;24.13;;;13.50;;
25083;SDS011;13075;55.682;37.564;2022-12-22T11:25:20;21.13;;;12.45;;
25083;SDS011;13075;55.682;37.564;2022-12-22T11:30:20;24.42;;;13.13;;
25083;SDS011;13075;55.682;37.564;2022-12-22T11:33:12;20.35;;;12.43;;
25083;SDS011;13075;55.682;37.564;2022-12-22T11:35:46;22.17;;;13.18;;
25083;SDS011;13075;55.682;37.564;2022-12-22T11:52:14;23.27;;;12.88;;
25083;SDS011;13075;55.682;37.564;2022-12-22T12:00:20;22.42;;;13.95;;
25083;SDS011;13075;55.682;37.564;2022-12-22T12:24:59;18.00;;;10.82;;
25083;SDS011;13075;55.682;37.564;2022-12-22T12:27:49;25.98;;;11.73;;
25083;SDS011;13075;55.682;37.564;2022-12-22T12:30:18;18.70;;;11.50;;
25083;SDS011;13075;55.682;37.564;2022-12-22T12:32:56;22.20;;;13.60;;
25083;SDS011;13075;55.682;37.564;2022-12-22T12:37:49;19.77;;;11.85;;
25083;SDS011;13075;55.682;37.564;2022-12-22T12:42:56;20.33;;;11.15;;
25083;SDS011;13075;55.682;37.564;2022-12-22T12:45:42;28.92;;;11.63;;
25083;SDS011;13075;55.682;37.564;2022-12-22T12:50:48;19.15;;;10.25;;
25083;SDS011;13075;55.682;37.564;2022-12-22T12:53:18;17.87;;;10.37;;
25083;SDS011;13075;55.682;37.564;2022-12-22T12:58:45;21.30;;;8.95;;
25083;SDS011;13075;55.682;37.564;2022-12-22T13:03:44;17.83;;;8.65;;
25083;SDS011;13075;55.682;37.564;2022-12-22T13:06:11;19.35;;;9.98;;
25083;SDS011;13075;55.682;37.564;2022-12-22T13:09:15;18.65;;;8.32;;
25083;SDS011;13075;55.682;37.564;2022-12-22T13:11:42;13.10;;;7.43;;
25083;SDS011;13075;55.682;37.564;2022-12-22T13:14:08;13.68;;;8.05;;
25083;SDS011;13075;55.682;37.564;2022-12-22T13:16:35;16.90;;;9.05;;
25083;SDS011;13075;55.682;37.564;2022-12-22T13:19:04;17.80;;;9.50;;
25083;SDS011;13075;55.682;37.564;2022-12-22T13:21:37;17.83;;;9.43;;
25083;SDS011;13075;55.682;37.564;2022-12-22T13:26:48;16.85;;;8.63;;
25083;SDS011;13075;55.682;37.564;2022-12-22T13:32:13;15.63;;;8.25;;
25083;SDS011;13075;55.682;37.564;2022-12-22T13:34:47;13.18;;;8.20;;
25083;SDS011;13075;55.682;37.564;2022-12-22T13:37:19;14.35;;;7.80;;
25083;SDS011;13075;55.682;37.564;2022-12-22T13:40:05;14.85;;;8.07;;
25083;SDS011;13075;55.682;37.564;2022-12-22T13:42:56;13.50;;;8.18;;
25083;SDS011;13075;55.682;37.564;2022-12-22T13:47:56;18.90;;;9.23;;
25083;SDS011;13075;55.682;37.564;2022-12-22T13:50:30;16.08;;;8.52;;
25083;SDS011;13075;55.682;37.564;2022-12-22T13:53:02;13.80;;;9.10;;
25083;SDS011;13075;55.682;37.564;2022-12-22T13:55:30;14.70;;;8.25;;
25083;SDS011;13075;55.682;37.564;2022-12-22T13:57:59;18.00;;;8.18;;
25083;SDS011;13075;55.682;37.564;2022-12-22T14:00:33;12.70;;;8.35;;
25083;SDS011;13075;55.682;37.564;2022-12-22T14:02:59;13.73;;;7.97;;
25083;SDS011;13075;55.682;37.564;2022-12-22T14:05:29;17.80;;;9.10;;
25083;SDS011;13075;55.682;37.564;2022-12-22T14:08:00;16.35;;;8.55;;
25083;SDS011;13075;55.682;37.564;2022-12-22T14:10:44;12.27;;;7.07;;
25083;SDS011;13075;55.682;37.564;2022-12-22T14:15:41;15.38;;;8.50;;
25083;SDS011;13075;55.682;37.564;2022-12-22T14:18:12;14.57;;;9.30;;
25083;SDS011;13075;55.682;37.564;2022-12-22T14:20:39;15.65;;;8.70;;
25083;SDS011;13075;55.682;37.564;2022-12-22T14:23:22;17.05;;;8.45;;
25083;SDS011;13075;55.682;37.564;2022-12-22T14:25:51;19.05;;;10.20;;
25083;SDS011;13075;55.682;37.564;2022-12-22T14:28:20;16.02;;;8.25;;
25083;SDS011;13075;55.682;37.564;2022-12-22T14:30:51;16.23;;;8.20;;
25083;SDS011;13075;55.682;37.564;2022-12-22T14:35:48;14.23;;;8.30;;
25083;SDS011;13075;55.682;37.564;2022-12-22T14:38:24;13.13;;;9.02;;
25083;SDS011;13075;55.682;37.564;2022-12-22T14:40:51;12.55;;;8.38;;
25083;SDS011;13075;55.682;37.564;2022-12-22T14:45:44;16.40;;;8.07;;
25083;SDS011;13075;55.682;37.564;2022-12-22T14:48:16;17.48;;;9.75;;
25083;SDS011;13075;55.682;37.564;2022-12-22T14:50:48;17.30;;;9.45;;
25083;SDS011;13075;55.682;37.564;2022-12-22T14:53:21;12.85;;;7.90;;
25083;SDS011;13075;55.682;37.564;2022-12-22T14:55:51;13.15;;;9.50;;
25083;SDS011;13075;55.682;37.564;2022-12-22T14:58:21;13.93;;;8.80;;
25083;SDS011;13075;55.682;37.564;2022-12-22T15:03:56;16.15;;;9.20;;
25083;SDS011;13075;55.682;37.564;2022-12-22T15:09:05;19.10;;;10.65;;
25083;SDS011;13075;55.682;37.564;2022-12-22T15:11:31;14.50;;;9.25;;
25083;SDS011;13075;55.682;37.564;2022-12-22T15:13:57;13.18;;;8.35;;
25083;SDS011;13075;55.682;37.564;2022-12-22T15:16:23;21.05;;;9.57;;
25083;SDS011;13075;55.682;37.564;2022-12-22T15:18:49;16.35;;;10.25;;
25083;SDS011;13075;55.682;37.564;2022-12-22T15:21:16;17.70;;;10.70;;
25083;SDS011;13075;55.682;37.564;2022-12-22T15:23:43;18.48;;;10.15;;
25083;SDS011;13075;55.682;37.564;2022-12-22T15:26:09;15.65;;;8.95;;
25083;SDS011;13075;55.682;37.564;2022-12-22T15:28:35;19.92;;;9.25;;
25083;SDS011;13075;55.682;37.564;2022-12-22T15:31:01;14.23;;;9.10;;
25083;SDS011;13075;55.682;37.564;2022-12-22T15:33:28;18.33;;;10.27;;
25083;SDS011;13075;55.682;37.564;2022-12-22T15:35:55;21.63;;;10.15;;
25083;SDS011;13075;55.682;37.564;2022-12-22T15:38:22;16.52;;;9.27;;
25083;SDS011;13075;55.682;37.564;2022-12-22T15:40:48;18.85;;;9.90;;
25083;SDS011;13075;55.682;37.564;2022-12-22T15:43:15;14.77;;;8.35;;
25083;SDS011;13075;55.682;37.564;2022-12-22T15:45:42;18.35;;;8.75;;
25083;SDS011;13075;55.682;37.564;2022-12-22T15:48:13;17.23;;;10.02;;
25083;SDS011;13075;55.682;37.564;2022-12-22T15:50:52;16.23;;;9.65;;
25083;SDS011;13075;55.682;37.564;2022-12-22T15:53:19;15.82;;;9.80;;
25083;SDS011;13075;55.682;37.564;2022-12-22T15:55:49;17.42;;;9.63;;
25083;SDS011;13075;55.682;37.564;2022-12-22T15:58:19;17.08;;;9.70;;
25083;SDS011;13075;55.682;37.564;2022-12-22T16:00:48;23.88;;;11.48;;
25083;SDS011;13075;55.682;37.564;2022-12-22T16:03:13;20.92;;;10.25;;
25083;SDS011;13075;55.682;37.564;2022-12-22T16:05:39;18.85;;;11.02;;
25083;SDS011;13075;55.682;37.564;2022-12-22T16:08:11;18.70;;;10.48;;
25083;SDS011;13075;55.682;37.564;2022-12-22T16:10:38;19.20;;;10.18;;
25083;SDS011;13075;55.682;37.564;2022-12-22T16:13:04;16.98;;;10.27;;
25083;SDS011;13075;55.682;37.564;2022-12-22T16:15:31;22.65;;;11.00;;
25083;SDS011;13075;55.682;37.564;2022-12-22T16:17:58;19.27;;;11.43;;
25083;SDS011;13075;55.682;37.564;2022-12-22T16:20:25;16.40;;;10.27;;
25083;SDS011;13075;55.682;37.564;2022-12-22T16:22:53;17.85;;;11.10;;
25083;SDS011;13075;55.682;37.564;2022-12-22T16:25:24;20.95;;;11.82;;
25083;SDS011;13075;55.682;37.564;2022-12-22T16:27:55;16.70;;;10.38;;
25083;SDS011;13075;55.682;37.564;2022-12-22T16:30:24;15.70;;;10.77;;
25083;SDS011;13075;55.682;37.564;2022-12-22T16:32:52;20.77;;;12.07;;
25083;SDS011;13075;55.682;37.564;2022-12-22T16:35:19;20.20;;;10.35;;
25083;SDS011;13075;55.682;37.564;2022-12-22T16:37:47;18.42;;;11.20;;
25083;SDS011;13075;55.682;37.564;2022-12-22T16:40:14;20.35;;;11.00;;
25083;SDS011;13075;55.682;37.564;2022-12-22T16:42:44;17.85;;;10.68;;
25083;SDS011;13075;55.682;37.564;2022-12-22T16:45:23;16.65;;;9.45;;
25083;SDS011;13075;55.682;37.564;2022-12-22T16:47:52;15.82;;;10.20;;
25083;SDS011;13075;55.682;37.564;2022-12-22T16:50:22;14.85;;;9.57;;
25083;SDS011;13075;55.682;37.564;2022-12-22T16:52:57;17.13;;;9.35;;
25083;SDS011;13075;55.682;37.564;2022-12-22T16:55:24;15.13;;;10.23;;
25083;SDS011;13075;55.682;37.564;2022-12-22T16:57:49;17.00;;;9.82;;
25083;SDS011;13075;55.682;37.564;2022-12-22T17:00:16;18.02;;;9.77;;
25083;SDS011;13075;55.682;37.564;2022-12-22T17:02:47;14.88;;;9.30;;
25083;SDS011;13075;55.682;37.564;2022-12-22T17:05:28;15.20;;;8.90;;
25083;SDS011;13075;55.682;37.564;2022-12-22T17:08:00;16.05;;;9.57;;
25083;SDS011;13075;55.682;37.564;2022-12-22T17:10:27;17.05;;;9.77;;